Machias, Maine
Current Conditions -  °F | °C
As of 6:15 AM on Friday 24 Oct 2014 (Local Time) from KBHB Reporting Station
Overcast Overcast  
Wind Chill: 43°   Ceiling: 900
Heat Index: 48°   Visibility: 8mi
Dew Point: 48°   Wind: 14mph
Humidity: 100%   Direction: 20°NNE
Pressure: 29.63"   Gusts: NA
Location:  44.72°N, 67.46°W
Report Text: KBHB 241015Z AUTO 02012KT 8SM OVC009 09/09 A2963 RMK AO1 P0001
Loading
Personal Weather Stations






























Interactive Weather Map
Tropical Storm Tracking
New forecast layout! Learn more

10-Day Weather Forecast

Advertisements
Track Severe Weather on mobile